sensor_id;sensor_type;location;lat;lon;timestamp;temperature;humidity
32769;DHT22;23049;54.304;8.826;2023-07-20T00:02:13;14.50;99.90
32769;DHT22;23049;54.304;8.826;2023-07-20T00:04:39;14.40;99.90
32769;DHT22;23049;54.304;8.826;2023-07-20T00:07:05;14.40;99.90
32769;DHT22;23049;54.304;8.826;2023-07-20T00:09:30;14.30;99.90
32769;DHT22;23049;54.304;8.826;2023-07-20T00:11:56;14.40;99.90
32769;DHT22;23049;54.304;8.826;2023-07-20T00:14:21;14.30;99.90
32769;DHT22;23049;54.304;8.826;2023-07-20T00:16:49;14.30;99.90
32769;DHT22;23049;54.304;8.826;2023-07-20T00:19:27;14.30;99.90
32769;DHT22;23049;54.304;8.826;2023-07-20T00:21:53;14.20;99.90
32769;DHT22;23049;54.304;8.826;2023-07-20T00:24:19;14.20;99.90
32769;DHT22;23049;54.304;8.826;2023-07-20T00:26:44;14.20;99.90
32769;DHT22;23049;54.304;8.826;2023-07-20T00:29:10;14.20;99.90
32769;DHT22;23049;54.304;8.826;2023-07-20T00:31:36;14.10;99.90
32769;DHT22;23049;54.304;8.826;2023-07-20T00:36:40;14.10;99.90
32769;DHT22;23049;54.304;8.826;2023-07-20T00:39:06;14.10;99.90
32769;DHT22;23049;54.304;8.826;2023-07-20T00:41:32;14.00;99.90
32769;DHT22;23049;54.304;8.826;2023-07-20T00:43:58;14.00;99.90
32769;DHT22;23049;54.304;8.826;2023-07-20T00:46:23;13.90;99.90
32769;DHT22;23049;54.304;8.826;2023-07-20T00:48:52;14.00;99.90
32769;DHT22;23049;54.304;8.826;2023-07-20T00:51:18;14.10;99.90
32769;DHT22;23049;54.304;8.826;2023-07-20T00:53:44;14.10;99.90
32769;DHT22;23049;54.304;8.826;2023-07-20T00:56:09;14.10;99.90
32769;DHT22;23049;54.304;8.826;2023-07-20T00:58:35;14.10;99.90
32769;DHT22;23049;54.304;8.826;2023-07-20T01:01:01;14.10;99.90
32769;DHT22;23049;54.304;8.826;2023-07-20T01:06:05;14.10;99.90
32769;DHT22;23049;54.304;8.826;2023-07-20T01:12:05;14.10;99.90
32769;DHT22;23049;54.304;8.826;2023-07-20T01:13:57;14.00;99.90
32769;DHT22;23049;54.304;8.826;2023-07-20T01:16:23;14.00;99.90
32769;DHT22;23049;54.304;8.826;2023-07-20T01:18:49;14.00;99.90
32769;DHT22;23049;54.304;8.826;2023-07-20T01:21:18;14.00;99.90
32769;DHT22;23049;54.304;8.826;2023-07-20T01:23:51;14.10;99.90
32769;DHT22;23049;54.304;8.826;2023-07-20T01:31:28;14.10;99.90
32769;DHT22;23049;54.304;8.826;2023-07-20T01:33:59;14.10;99.90
32769;DHT22;23049;54.304;8.826;2023-07-20T01:36:26;14.10;99.90
32769;DHT22;23049;54.304;8.826;2023-07-20T01:38:52;14.10;99.90
32769;DHT22;23049;54.304;8.826;2023-07-20T01:41:18;14.10;99.90
32769;DHT22;23049;54.304;8.826;2023-07-20T01:43:44;14.10;99.90
32769;DHT22;23049;54.304;8.826;2023-07-20T01:46:09;14.20;99.90
32769;DHT22;23049;54.304;8.826;2023-07-20T01:48:35;14.20;99.90
32769;DHT22;23049;54.304;8.826;2023-07-20T01:51:00;14.20;99.90
32769;DHT22;23049;54.304;8.826;2023-07-20T01:53:26;14.20;99.90
32769;DHT22;23049;54.304;8.826;2023-07-20T01:55:54;14.20;99.90
32769;DHT22;23049;54.304;8.826;2023-07-20T01:58:20;14.20;99.90
32769;DHT22;23049;54.304;8.826;2023-07-20T02:00:46;14.20;99.90
32769;DHT22;23049;54.304;8.826;2023-07-20T02:03:11;14.20;99.90
32769;DHT22;23049;54.304;8.826;2023-07-20T02:05:42;14.20;99.90
32769;DHT22;23049;54.304;8.826;2023-07-20T02:08:07;14.20;99.90
32769;DHT22;23049;54.304;8.826;2023-07-20T02:10:33;14.20;99.90
32769;DHT22;23049;54.304;8.826;2023-07-20T02:12:58;14.30;99.90
32769;DHT22;23049;54.304;8.826;2023-07-20T02:15:24;14.40;99.90
32769;DHT22;23049;54.304;8.826;2023-07-20T02:17:49;14.50;99.90
32769;DHT22;23049;54.304;8.826;2023-07-20T02:20:15;14.60;99.90
32769;DHT22;23049;54.304;8.826;2023-07-20T02:22:40;14.60;99.90
32769;DHT22;23049;54.304;8.826;2023-07-20T02:25:06;14.60;99.90
32769;DHT22;23049;54.304;8.826;2023-07-20T02:27:33;14.50;99.90
32769;DHT22;23049;54.304;8.826;2023-07-20T02:29:58;14.50;99.90
32769;DHT22;23049;54.304;8.826;2023-07-20T02:32:24;14.50;99.90
32769;DHT22;23049;54.304;8.826;2023-07-20T02:34:49;14.50;99.90
32769;DHT22;23049;54.304;8.826;2023-07-20T02:37:16;14.50;99.90
32769;DHT22;23049;54.304;8.826;2023-07-20T02:39:41;14.70;99.90
32769;DHT22;23049;54.304;8.826;2023-07-20T02:42:07;14.70;99.90
32769;DHT22;23049;54.304;8.826;2023-07-20T02:44:32;14.70;99.90
32769;DHT22;23049;54.304;8.826;2023-07-20T02:46:58;14.70;99.90
32769;DHT22;23049;54.304;8.826;2023-07-20T02:49:23;14.70;99.90
32769;DHT22;23049;54.304;8.826;2023-07-20T02:51:49;14.60;99.90
32769;DHT22;23049;54.304;8.826;2023-07-20T02:54:14;14.60;99.90
32769;DHT22;23049;54.304;8.826;2023-07-20T02:56:40;14.60;99.90
32769;DHT22;23049;54.304;8.826;2023-07-20T02:59:05;14.50;99.90
32769;DHT22;23049;54.304;8.826;2023-07-20T03:01:31;14.50;99.90
32769;DHT22;23049;54.304;8.826;2023-07-20T03:03:56;14.40;99.90
32769;DHT22;23049;54.304;8.826;2023-07-20T03:06:22;14.40;99.90
32769;DHT22;23049;54.304;8.826;2023-07-20T03:08:48;14.40;99.90
32769;DHT22;23049;54.304;8.826;2023-07-20T03:11:17;14.30;99.90
32769;DHT22;23049;54.304;8.826;2023-07-20T03:16:17;14.30;99.90
32769;DHT22;23049;54.304;8.826;2023-07-20T03:18:43;14.10;99.90
32769;DHT22;23049;54.304;8.826;2023-07-20T03:21:08;14.10;99.90
32769;DHT22;23049;54.304;8.826;2023-07-20T03:23:34;14.00;99.90
32769;DHT22;23049;54.304;8.826;2023-07-20T03:26:00;14.00;99.90
32769;DHT22;23049;54.304;8.826;2023-07-20T03:28:25;14.00;99.90
32769;DHT22;23049;54.304;8.826;2023-07-20T03:30:57;13.90;99.90
32769;DHT22;23049;54.304;8.826;2023-07-20T03:33:24;13.90;99.90
32769;DHT22;23049;54.304;8.826;2023-07-20T03:35:50;13.80;99.90
32769;DHT22;23049;54.304;8.826;2023-07-20T03:38:15;13.90;99.90
32769;DHT22;23049;54.304;8.826;2023-07-20T03:40:49;13.90;99.90
32769;DHT22;23049;54.304;8.826;2023-07-20T03:43:14;14.00;99.90
32769;DHT22;23049;54.304;8.826;2023-07-20T03:45:40;13.90;99.90
32769;DHT22;23049;54.304;8.826;2023-07-20T03:48:05;14.00;99.90
32769;DHT22;23049;54.304;8.826;2023-07-20T03:50:31;14.00;99.90
32769;DHT22;23049;54.304;8.826;2023-07-20T03:55:30;14.00;99.90
32769;DHT22;23049;54.304;8.826;2023-07-20T03:57:55;14.00;99.90
32769;DHT22;23049;54.304;8.826;2023-07-20T04:00:21;14.10;99.90
32769;DHT22;23049;54.304;8.826;2023-07-20T04:05:26;14.10;99.90
32769;DHT22;23049;54.304;8.826;2023-07-20T04:07:52;14.20;99.90
32769;DHT22;23049;54.304;8.826;2023-07-20T04:10:18;14.20;99.90
32769;DHT22;23049;54.304;8.826;2023-07-20T04:12:44;14.20;99.90
32769;DHT22;23049;54.304;8.826;2023-07-20T04:15:10;14.30;99.90
32769;DHT22;23049;54.304;8.826;2023-07-20T04:17:35;14.30;99.90
32769;DHT22;23049;54.304;8.826;2023-07-20T04:20:01;14.40;99.90
32769;DHT22;23049;54.304;8.826;2023-07-20T04:22:28;14.40;99.90
32769;DHT22;23049;54.304;8.826;2023-07-20T04:24:53;14.50;99.90
32769;DHT22;23049;54.304;8.826;2023-07-20T04:27:19;14.60;99.90
32769;DHT22;23049;54.304;8.826;2023-07-20T04:29:44;14.70;99.90
32769;DHT22;23049;54.304;8.826;2023-07-20T04:32:10;14.80;99.90
32769;DHT22;23049;54.304;8.826;2023-07-20T04:34:35;14.70;99.90
32769;DHT22;23049;54.304;8.826;2023-07-20T04:37:03;14.70;99.90
32769;DHT22;23049;54.304;8.826;2023-07-20T04:39:28;14.60;99.90
32769;DHT22;23049;54.304;8.826;2023-07-20T04:41:54;14.60;99.90
32769;DHT22;23049;54.304;8.826;2023-07-20T04:44:19;14.50;99.90
32769;DHT22;23049;54.304;8.826;2023-07-20T04:46:45;14.50;99.90
32769;DHT22;23049;54.304;8.826;2023-07-20T04:49:11;14.60;99.90
32769;DHT22;23049;54.304;8.826;2023-07-20T04:51:38;14.60;99.90
32769;DHT22;23049;54.304;8.826;2023-07-20T04:54:03;14.70;99.90
32769;DHT22;23049;54.304;8.826;2023-07-20T04:56:29;14.90;99.90
32769;DHT22;23049;54.304;8.826;2023-07-20T04:58:55;15.00;99.90
32769;DHT22;23049;54.304;8.826;2023-07-20T05:01:20;15.00;99.90
32769;DHT22;23049;54.304;8.826;2023-07-20T05:03:46;15.10;99.90
32769;DHT22;23049;54.304;8.826;2023-07-20T05:06:11;15.30;99.90
32769;DHT22;23049;54.304;8.826;2023-07-20T05:08:37;15.40;99.90
32769;DHT22;23049;54.304;8.826;2023-07-20T05:11:04;15.40;99.90
32769;DHT22;23049;54.304;8.826;2023-07-20T05:13:29;15.40;99.90
32769;DHT22;23049;54.304;8.826;2023-07-20T05:15:55;15.40;99.90
32769;DHT22;23049;54.304;8.826;2023-07-20T05:18:20;15.50;99.90
32769;DHT22;23049;54.304;8.826;2023-07-20T05:20:49;15.60;99.90
32769;DHT22;23049;54.304;8.826;2023-07-20T05:23:18;15.70;99.90
32769;DHT22;23049;54.304;8.826;2023-07-20T05:25:45;15.70;99.90
32769;DHT22;23049;54.304;8.826;2023-07-20T05:28:10;15.60;99.90
32769;DHT22;23049;54.304;8.826;2023-07-20T05:30:36;15.60;99.90
32769;DHT22;23049;54.304;8.826;2023-07-20T05:33:01;15.50;99.90
32769;DHT22;23049;54.304;8.826;2023-07-20T05:35:27;15.40;99.90
32769;DHT22;23049;54.304;8.826;2023-07-20T05:37:53;15.30;99.90
32769;DHT22;23049;54.304;8.826;2023-07-20T05:40:18;15.30;99.90
32769;DHT22;23049;54.304;8.826;2023-07-20T05:45:19;15.70;99.90
32769;DHT22;23049;54.304;8.826;2023-07-20T05:47:46;16.10;99.90
32769;DHT22;23049;54.304;8.826;2023-07-20T05:50:11;16.50;99.90
32769;DHT22;23049;54.304;8.826;2023-07-20T05:52:37;16.70;99.90
32769;DHT22;23049;54.304;8.826;2023-07-20T05:55:04;17.00;99.90
32769;DHT22;23049;54.304;8.826;2023-07-20T05:57:30;17.20;99.90
32769;DHT22;23049;54.304;8.826;2023-07-20T05:59:55;17.10;99.90
32769;DHT22;23049;54.304;8.826;2023-07-20T06:02:21;17.00;99.90
32769;DHT22;23049;54.304;8.826;2023-07-20T06:04:47;17.30;99.90
32769;DHT22;23049;54.304;8.826;2023-07-20T06:07:12;17.30;99.90
32769;DHT22;23049;54.304;8.826;2023-07-20T06:09:38;17.30;99.90
32769;DHT22;23049;54.304;8.826;2023-07-20T06:12:03;17.40;99.90
32769;DHT22;23049;54.304;8.826;2023-07-20T06:14:29;17.30;99.90
32769;DHT22;23049;54.304;8.826;2023-07-20T06:16:54;17.40;99.90
32769;DHT22;23049;54.304;8.826;2023-07-20T06:19:20;17.50;99.90
32769;DHT22;23049;54.304;8.826;2023-07-20T06:21:47;17.50;99.90
32769;DHT22;23049;54.304;8.826;2023-07-20T06:24:15;17.40;99.90
32769;DHT22;23049;54.304;8.826;2023-07-20T06:26:40;16.90;99.90
32769;DHT22;23049;54.304;8.826;2023-07-20T06:29:06;16.60;99.90
32769;DHT22;23049;54.304;8.826;2023-07-20T06:31:32;16.40;99.90
32769;DHT22;23049;54.304;8.826;2023-07-20T06:33:58;16.20;99.90
32769;DHT22;23049;54.304;8.826;2023-07-20T06:36:23;16.10;99.90
32769;DHT22;23049;54.304;8.826;2023-07-20T06:38:51;16.00;99.90
32769;DHT22;23049;54.304;8.826;2023-07-20T06:41:16;16.10;99.90
32769;DHT22;23049;54.304;8.826;2023-07-20T06:43:42;16.00;99.90
32769;DHT22;23049;54.304;8.826;2023-07-20T06:46:07;16.20;99.90
32769;DHT22;23049;54.304;8.826;2023-07-20T06:48:33;16.20;99.90
32769;DHT22;23049;54.304;8.826;2023-07-20T06:50:58;16.30;99.90
32769;DHT22;23049;54.304;8.826;2023-07-20T06:53:24;16.50;99.90
32769;DHT22;23049;54.304;8.826;2023-07-20T06:55:49;16.80;99.90
32769;DHT22;23049;54.304;8.826;2023-07-20T06:58:15;17.00;99.90
32769;DHT22;23049;54.304;8.826;2023-07-20T07:00:41;16.90;99.90
32769;DHT22;23049;54.304;8.826;2023-07-20T07:03:06;16.50;99.90
32769;DHT22;23049;54.304;8.826;2023-07-20T07:05:35;16.20;99.90
32769;DHT22;23049;54.304;8.826;2023-07-20T07:08:00;16.00;99.90
32769;DHT22;23049;54.304;8.826;2023-07-20T07:10:26;15.90;99.90
32769;DHT22;23049;54.304;8.826;2023-07-20T07:15:24;16.20;99.90
32769;DHT22;23049;54.304;8.826;2023-07-20T07:17:49;16.50;99.90
32769;DHT22;23049;54.304;8.826;2023-07-20T07:20:15;16.70;99.90
32769;DHT22;23049;54.304;8.826;2023-07-20T07:22:41;16.70;99.90
32769;DHT22;23049;54.304;8.826;2023-07-20T07:25:09;16.60;99.90
32769;DHT22;23049;54.304;8.826;2023-07-20T07:27:35;16.50;99.90
32769;DHT22;23049;54.304;8.826;2023-07-20T07:30:00;16.60;99.90
32769;DHT22;23049;54.304;8.826;2023-07-20T07:32:26;16.50;99.90
32769;DHT22;23049;54.304;8.826;2023-07-20T07:34:51;16.60;99.90
32769;DHT22;23049;54.304;8.826;2023-07-20T07:37:17;16.70;99.90
32769;DHT22;23049;54.304;8.826;2023-07-20T07:39:45;16.80;99.90
32769;DHT22;23049;54.304;8.826;2023-07-20T07:42:11;16.80;99.90
32769;DHT22;23049;54.304;8.826;2023-07-20T07:44:36;17.00;99.90
32769;DHT22;23049;54.304;8.826;2023-07-20T07:47:02;17.00;99.90
32769;DHT22;23049;54.304;8.826;2023-07-20T07:49:27;17.00;99.90
32769;DHT22;23049;54.304;8.826;2023-07-20T07:51:53;17.00;99.90
32769;DHT22;23049;54.304;8.826;2023-07-20T07:54:18;17.00;99.90
32769;DHT22;23049;54.304;8.826;2023-07-20T07:56:44;17.00;99.90
32769;DHT22;23049;54.304;8.826;2023-07-20T07:59:10;17.10;99.90
32769;DHT22;23049;54.304;8.826;2023-07-20T08:01:35;17.40;99.90
32769;DHT22;23049;54.304;8.826;2023-07-20T08:04:01;17.40;99.90
32769;DHT22;23049;54.304;8.826;2023-07-20T08:06:29;17.20;99.90
32769;DHT22;23049;54.304;8.826;2023-07-20T08:08:54;17.20;99.90
32769;DHT22;23049;54.304;8.826;2023-07-20T08:11:20;17.30;99.90
32769;DHT22;23049;54.304;8.826;2023-07-20T08:13:45;17.30;99.90
32769;DHT22;23049;54.304;8.826;2023-07-20T08:16:11;17.30;99.90
32769;DHT22;23049;54.304;8.826;2023-07-20T08:18:36;17.40;99.90
32769;DHT22;23049;54.304;8.826;2023-07-20T08:21:02;17.50;99.90
32769;DHT22;23049;54.304;8.826;2023-07-20T08:26:00;17.70;99.90
32769;DHT22;23049;54.304;8.826;2023-07-20T08:28:26;17.70;99.90
32769;DHT22;23049;54.304;8.826;2023-07-20T08:30:52;17.70;99.90
32769;DHT22;23049;54.304;8.826;2023-07-20T08:33:18;17.40;99.90
32769;DHT22;23049;54.304;8.826;2023-07-20T08:35:45;17.30;99.90
32769;DHT22;23049;54.304;8.826;2023-07-20T08:38:10;17.20;99.90
32769;DHT22;23049;54.304;8.826;2023-07-20T08:40:39;17.20;99.90
32769;DHT22;23049;54.304;8.826;2023-07-20T08:43:05;17.40;99.90
32769;DHT22;23049;54.304;8.826;2023-07-20T08:45:32;17.50;99.90
32769;DHT22;23049;54.304;8.826;2023-07-20T08:47:58;17.50;99.90
32769;DHT22;23049;54.304;8.826;2023-07-20T08:50:25;17.50;99.90
32769;DHT22;23049;54.304;8.826;2023-07-20T08:55:23;17.80;99.90
32769;DHT22;23049;54.304;8.826;2023-07-20T08:57:58;17.60;99.90
32769;DHT22;23049;54.304;8.826;2023-07-20T09:00:24;17.70;99.90
32769;DHT22;23049;54.304;8.826;2023-07-20T09:05:32;18.00;99.90
32769;DHT22;23049;54.304;8.826;2023-07-20T09:07:57;18.00;99.90
32769;DHT22;23049;54.304;8.826;2023-07-20T09:10:23;18.10;99.90
32769;DHT22;23049;54.304;8.826;2023-07-20T09:12:49;18.10;99.90
32769;DHT22;23049;54.304;8.826;2023-07-20T09:15:14;18.00;99.90
32769;DHT22;23049;54.304;8.826;2023-07-20T09:17:45;17.80;99.90
32769;DHT22;23049;54.304;8.826;2023-07-20T09:20:10;17.50;99.90
32769;DHT22;23049;54.304;8.826;2023-07-20T09:22:37;17.50;99.90
32769;DHT22;23049;54.304;8.826;2023-07-20T09:25:15;17.50;99.90
32769;DHT22;23049;54.304;8.826;2023-07-20T09:27:42;17.60;99.90
32769;DHT22;23049;54.304;8.826;2023-07-20T09:30:08;17.90;99.90
32769;DHT22;23049;54.304;8.826;2023-07-20T09:32:38;17.90;99.90
32769;DHT22;23049;54.304;8.826;2023-07-20T09:35:04;17.90;99.90
32769;DHT22;23049;54.304;8.826;2023-07-20T09:37:29;17.90;99.90
32769;DHT22;23049;54.304;8.826;2023-07-20T09:39:58;17.90;99.90
32769;DHT22;23049;54.304;8.826;2023-07-20T09:42:23;17.90;99.90
32769;DHT22;23049;54.304;8.826;2023-07-20T09:44:50;18.00;99.90
32769;DHT22;23049;54.304;8.826;2023-07-20T09:47:22;18.00;99.90
32769;DHT22;23049;54.304;8.826;2023-07-20T09:49:48;18.00;99.90
32769;DHT22;23049;54.304;8.826;2023-07-20T09:52:14;18.10;99.90
32769;DHT22;23049;54.304;8.826;2023-07-20T09:54:40;18.00;99.90
32769;DHT22;23049;54.304;8.826;2023-07-20T09:57:06;18.20;99.90
32769;DHT22;23049;54.304;8.826;2023-07-20T09:59:33;18.00;99.90
32769;DHT22;23049;54.304;8.826;2023-07-20T10:01:58;17.80;99.90
32769;DHT22;23049;54.304;8.826;2023-07-20T10:04:26;17.50;99.90
32769;DHT22;23049;54.304;8.826;2023-07-20T10:06:54;17.30;99.90
32769;DHT22;23049;54.304;8.826;2023-07-20T10:09:20;17.20;99.90
32769;DHT22;23049;54.304;8.826;2023-07-20T10:11:49;17.10;99.90
32769;DHT22;23049;54.304;8.826;2023-07-20T10:16:54;17.30;99.90
32769;DHT22;23049;54.304;8.826;2023-07-20T10:19:25;17.40;99.90
32769;DHT22;23049;54.304;8.826;2023-07-20T10:22:11;17.50;99.90
32769;DHT22;23049;54.304;8.826;2023-07-20T10:24:38;17.90;99.90
32769;DHT22;23049;54.304;8.826;2023-07-20T10:27:07;18.20;99.90
32769;DHT22;23049;54.304;8.826;2023-07-20T10:29:32;18.50;99.90
32769;DHT22;23049;54.304;8.826;2023-07-20T10:31:58;18.50;99.90
32769;DHT22;23049;54.304;8.826;2023-07-20T10:37:03;18.80;99.90
32769;DHT22;23049;54.304;8.826;2023-07-20T10:39:31;18.90;99.90
32769;DHT22;23049;54.304;8.826;2023-07-20T10:42:02;19.00;99.90
32769;DHT22;23049;54.304;8.826;2023-07-20T10:44:28;18.90;99.90
32769;DHT22;23049;54.304;8.826;2023-07-20T10:47:01;19.10;99.90
32769;DHT22;23049;54.304;8.826;2023-07-20T10:49:26;18.70;99.90
32769;DHT22;23049;54.304;8.826;2023-07-20T10:51:56;17.90;99.90
32769;DHT22;23049;54.304;8.826;2023-07-20T10:56:35;17.10;99.90
32769;DHT22;23049;54.304;8.826;2023-07-20T10:59:01;16.90;99.90
32769;DHT22;23049;54.304;8.826;2023-07-20T11:01:30;16.90;99.90
32769;DHT22;23049;54.304;8.826;2023-07-20T11:03:59;16.90;99.90
32769;DHT22;23049;54.304;8.826;2023-07-20T11:09:04;17.40;99.90
32769;DHT22;23049;54.304;8.826;2023-07-20T11:11:30;17.60;99.90
32769;DHT22;23049;54.304;8.826;2023-07-20T11:16:46;18.60;99.90
32769;DHT22;23049;54.304;8.826;2023-07-20T11:21:41;19.20;99.90
32769;DHT22;23049;54.304;8.826;2023-07-20T11:24:07;19.30;99.90
32769;DHT22;23049;54.304;8.826;2023-07-20T11:26:49;19.50;99.90
32769;DHT22;23049;54.304;8.826;2023-07-20T11:29:21;19.50;99.90
32769;DHT22;23049;54.304;8.826;2023-07-20T11:31:48;19.40;99.90
32769;DHT22;23049;54.304;8.826;2023-07-20T11:34:14;19.30;99.90
32769;DHT22;23049;54.304;8.826;2023-07-20T11:36:41;19.20;99.90
32769;DHT22;23049;54.304;8.826;2023-07-20T11:39:10;19.50;99.90
32769;DHT22;23049;54.304;8.826;2023-07-20T11:41:36;19.60;99.90
32769;DHT22;23049;54.304;8.826;2023-07-20T11:44:02;19.50;99.90
32769;DHT22;23049;54.304;8.826;2023-07-20T11:46:28;19.60;99.90
32769;DHT22;23049;54.304;8.826;2023-07-20T11:49:00;19.50;99.90
32769;DHT22;23049;54.304;8.826;2023-07-20T11:51:27;19.60;99.90
32769;DHT22;23049;54.304;8.826;2023-07-20T11:53:53;19.30;99.90
32769;DHT22;23049;54.304;8.826;2023-07-20T11:56:18;18.90;99.90
32769;DHT22;23049;54.304;8.826;2023-07-20T11:58:44;18.80;99.90
32769;DHT22;23049;54.304;8.826;2023-07-20T12:01:09;18.70;99.90
32769;DHT22;23049;54.304;8.826;2023-07-20T12:03:36;18.70;99.90
32769;DHT22;23049;54.304;8.826;2023-07-20T12:06:08;18.70;99.90
32769;DHT22;23049;54.304;8.826;2023-07-20T12:08:34;18.90;99.90
32769;DHT22;23049;54.304;8.826;2023-07-20T12:11:00;19.40;99.90
32769;DHT22;23049;54.304;8.826;2023-07-20T12:16:13;19.90;99.90
32769;DHT22;23049;54.304;8.826;2023-07-20T12:18:39;20.00;99.90
32769;DHT22;23049;54.304;8.826;2023-07-20T12:21:05;19.90;99.90
32769;DHT22;23049;54.304;8.826;2023-07-20T12:23:35;19.90;99.90
32769;DHT22;23049;54.304;8.826;2023-07-20T12:26:01;19.90;99.90
32769;DHT22;23049;54.304;8.826;2023-07-20T12:28:27;19.90;99.90
32769;DHT22;23049;54.304;8.826;2023-07-20T12:30:52;19.80;99.90
32769;DHT22;23049;54.304;8.826;2023-07-20T12:33:22;19.70;99.90
32769;DHT22;23049;54.304;8.826;2023-07-20T12:35:48;19.70;99.90
32769;DHT22;23049;54.304;8.826;2023-07-20T12:38:14;19.80;99.90
32769;DHT22;23049;54.304;8.826;2023-07-20T12:40:41;19.70;99.90
32769;DHT22;23049;54.304;8.826;2023-07-20T12:43:06;19.90;99.90
32769;DHT22;23049;54.304;8.826;2023-07-20T12:45:33;20.10;99.90
32769;DHT22;23049;54.304;8.826;2023-07-20T12:47:58;19.90;99.90
32769;DHT22;23049;54.304;8.826;2023-07-20T12:50:24;19.80;99.90
32769;DHT22;23049;54.304;8.826;2023-07-20T12:52:49;19.40;99.90
32769;DHT22;23049;54.304;8.826;2023-07-20T12:55:15;19.70;99.90
32769;DHT22;23049;54.304;8.826;2023-07-20T12:57:41;20.20;99.90
32769;DHT22;23049;54.304;8.826;2023-07-20T13:00:08;20.50;99.90
32769;DHT22;23049;54.304;8.826;2023-07-20T13:02:34;20.70;99.90
32769;DHT22;23049;54.304;8.826;2023-07-20T13:05:00;20.80;99.90
32769;DHT22;23049;54.304;8.826;2023-07-20T13:07:32;20.80;99.90
32769;DHT22;23049;54.304;8.826;2023-07-20T13:09:58;20.60;99.90
32769;DHT22;23049;54.304;8.826;2023-07-20T13:12:28;20.10;99.90
32769;DHT22;23049;54.304;8.826;2023-07-20T13:14:54;19.80;99.90
32769;DHT22;23049;54.304;8.826;2023-07-20T13:17:20;20.10;99.90
32769;DHT22;23049;54.304;8.826;2023-07-20T13:19:45;19.90;99.90
32769;DHT22;23049;54.304;8.826;2023-07-20T13:24:37;20.30;99.90
32769;DHT22;23049;54.304;8.826;2023-07-20T13:27:03;20.00;99.90
32769;DHT22;23049;54.304;8.826;2023-07-20T13:29:29;19.70;99.90
32769;DHT22;23049;54.304;8.826;2023-07-20T13:31:54;19.20;99.90
32769;DHT22;23049;54.304;8.826;2023-07-20T13:34:19;19.20;99.90
32769;DHT22;23049;54.304;8.826;2023-07-20T13:36:45;19.50;99.90
32769;DHT22;23049;54.304;8.826;2023-07-20T13:39:10;19.60;99.90
32769;DHT22;23049;54.304;8.826;2023-07-20T13:41:36;19.60;99.90
32769;DHT22;23049;54.304;8.826;2023-07-20T13:44:01;19.40;99.90
32769;DHT22;23049;54.304;8.826;2023-07-20T13:46:27;19.20;99.90
32769;DHT22;23049;54.304;8.826;2023-07-20T13:48:53;18.90;99.90
32769;DHT22;23049;54.304;8.826;2023-07-20T13:51:18;18.70;99.90
32769;DHT22;23049;54.304;8.826;2023-07-20T13:53:47;18.10;99.90
32769;DHT22;23049;54.304;8.826;2023-07-20T13:56:13;17.40;99.90
32769;DHT22;23049;54.304;8.826;2023-07-20T13:58:39;17.20;99.90
32769;DHT22;23049;54.304;8.826;2023-07-20T14:01:04;17.30;99.90
32769;DHT22;23049;54.304;8.826;2023-07-20T14:03:30;17.70;99.90
32769;DHT22;23049;54.304;8.826;2023-07-20T14:05:55;18.10;99.90
32769;DHT22;23049;54.304;8.826;2023-07-20T14:08:22;18.30;99.90
32769;DHT22;23049;54.304;8.826;2023-07-20T14:10:47;18.50;99.90
32769;DHT22;23049;54.304;8.826;2023-07-20T14:13:13;19.00;99.90
32769;DHT22;23049;54.304;8.826;2023-07-20T14:15:38;18.80;99.90
32769;DHT22;23049;54.304;8.826;2023-07-20T14:18:04;18.70;99.90
32769;DHT22;23049;54.304;8.826;2023-07-20T14:20:29;18.90;99.90
32769;DHT22;23049;54.304;8.826;2023-07-20T14:22:55;18.70;99.90
32769;DHT22;23049;54.304;8.826;2023-07-20T14:25:20;18.40;99.90
32769;DHT22;23049;54.304;8.826;2023-07-20T14:27:46;18.30;99.90
32769;DHT22;23049;54.304;8.826;2023-07-20T14:30:11;18.40;99.90
32769;DHT22;23049;54.304;8.826;2023-07-20T14:32:38;18.50;99.90
32769;DHT22;23049;54.304;8.826;2023-07-20T14:35:04;18.40;99.90
32769;DHT22;23049;54.304;8.826;2023-07-20T14:37:29;18.40;99.90
32769;DHT22;23049;54.304;8.826;2023-07-20T14:39:55;18.40;99.90
32769;DHT22;23049;54.304;8.826;2023-07-20T14:42:20;18.30;99.90
32769;DHT22;23049;54.304;8.826;2023-07-20T14:44:46;18.50;99.90
32769;DHT22;23049;54.304;8.826;2023-07-20T14:47:11;18.40;99.90
32769;DHT22;23049;54.304;8.826;2023-07-20T14:49:37;18.10;99.90
32769;DHT22;23049;54.304;8.826;2023-07-20T14:54:57;18.10;99.90
32769;DHT22;23049;54.304;8.826;2023-07-20T14:57:23;18.50;99.90
32769;DHT22;23049;54.304;8.826;2023-07-20T14:59:49;18.50;99.90
32769;DHT22;23049;54.304;8.826;2023-07-20T15:02:14;18.60;99.90
32769;DHT22;23049;54.304;8.826;2023-07-20T15:04:47;18.90;99.90
32769;DHT22;23049;54.304;8.826;2023-07-20T15:07:12;18.90;99.90
32769;DHT22;23049;54.304;8.826;2023-07-20T15:09:38;19.00;99.90
32769;DHT22;23049;54.304;8.826;2023-07-20T15:12:03;19.00;99.90
32769;DHT22;23049;54.304;8.826;2023-07-20T15:14:29;19.00;99.90
32769;DHT22;23049;54.304;8.826;2023-07-20T15:16:55;18.90;99.90
32769;DHT22;23049;54.304;8.826;2023-07-20T15:19:20;18.70;99.90
32769;DHT22;23049;54.304;8.826;2023-07-20T15:21:47;18.80;99.90
32769;DHT22;23049;54.304;8.826;2023-07-20T15:24:12;18.90;99.90
32769;DHT22;23049;54.304;8.826;2023-07-20T15:26:38;19.00;99.90
32769;DHT22;23049;54.304;8.826;2023-07-20T15:29:04;19.00;99.90
32769;DHT22;23049;54.304;8.826;2023-07-20T15:34:02;18.80;99.90
32769;DHT22;23049;54.304;8.826;2023-07-20T15:36:27;18.90;99.90
32769;DHT22;23049;54.304;8.826;2023-07-20T15:38:53;19.10;99.90
32769;DHT22;23049;54.304;8.826;2023-07-20T15:41:18;19.20;99.90
32769;DHT22;23049;54.304;8.826;2023-07-20T15:43:44;19.00;99.90
32769;DHT22;23049;54.304;8.826;2023-07-20T15:48:44;19.00;99.90
32769;DHT22;23049;54.304;8.826;2023-07-20T15:51:10;19.20;99.90
32769;DHT22;23049;54.304;8.826;2023-07-20T15:53:35;19.50;99.90
32769;DHT22;23049;54.304;8.826;2023-07-20T15:56:01;19.40;99.90
32769;DHT22;23049;54.304;8.826;2023-07-20T15:58:27;19.20;99.90
32769;DHT22;23049;54.304;8.826;2023-07-20T16:00:53;19.00;99.90
32769;DHT22;23049;54.304;8.826;2023-07-20T16:03:18;18.90;99.90
32769;DHT22;23049;54.304;8.826;2023-07-20T16:05:44;18.80;99.90
32769;DHT22;23049;54.304;8.826;2023-07-20T16:08:09;18.70;99.90
32769;DHT22;23049;54.304;8.826;2023-07-20T16:10:35;18.70;99.90
32769;DHT22;23049;54.304;8.826;2023-07-20T16:13:00;18.90;99.90
32769;DHT22;23049;54.304;8.826;2023-07-20T16:15:26;19.00;99.90
32769;DHT22;23049;54.304;8.826;2023-07-20T16:17:51;19.10;99.90
32769;DHT22;23049;54.304;8.826;2023-07-20T16:20:17;19.20;99.90
32769;DHT22;23049;54.304;8.826;2023-07-20T16:22:42;19.40;99.90
32769;DHT22;23049;54.304;8.826;2023-07-20T16:25:09;19.40;99.90
32769;DHT22;23049;54.304;8.826;2023-07-20T16:27:34;19.40;99.90